createdAt,value
2022-11-10T00:00:17.944Z,101398.72
2022-11-10T00:03:07.421Z,101401.28
2022-11-10T00:05:55.820Z,101406.44
2022-11-10T00:08:42.708Z,101404.59
2022-11-10T00:11:29.895Z,101412.41
2022-11-10T00:14:35.138Z,101401.78
2022-11-10T00:17:22.401Z,101410.44
2022-11-10T00:20:10.260Z,101403.34
2022-11-10T00:22:57.228Z,101406.72
2022-11-10T00:25:43.993Z,101399.66
2022-11-10T00:28:32.097Z,101409.19
2022-11-10T00:31:19.057Z,101418.78
2022-11-10T00:34:07.360Z,101417.81
2022-11-10T00:36:54.279Z,101421.28
2022-11-10T00:39:40.925Z,101434.34
2022-11-10T00:42:27.967Z,101435.19
2022-11-10T00:45:15.012Z,101431.66
2022-11-10T00:48:01.982Z,101434.28
2022-11-10T00:50:48.959Z,101443.88
2022-11-10T00:53:35.863Z,101434.28
2022-11-10T00:56:24.321Z,101431.72
2022-11-10T00:59:11.288Z,101452.78
2022-11-10T01:01:58.385Z,101445.81
2022-11-10T01:04:45.115Z,101447.56
2022-11-10T01:07:32.565Z,101447.56
2022-11-10T01:10:19.246Z,101455.44
2022-11-10T01:13:06.411Z,101461.63
2022-11-10T01:15:53.571Z,101473.84
2022-11-10T01:18:41.885Z,101480.84
2022-11-10T01:21:30.281Z,101491.34
2022-11-10T01:24:21.861Z,101496.66
2022-11-10T01:27:09.048Z,101487.91
2022-11-10T01:29:55.842Z,101490.53
2022-11-10T01:32:43.156Z,101490.53
2022-11-10T01:35:30.490Z,101486.97
2022-11-10T01:38:17.233Z,101492.22
2022-11-10T01:41:06.117Z,101490.44
2022-11-10T01:43:52.859Z,101485.97
2022-11-10T01:46:39.798Z,101484.19
2022-11-10T01:49:28.619Z,101492.06
2022-11-10T01:52:15.602Z,101498.13
2022-11-10T01:55:02.699Z,101502.50
2022-11-10T01:57:50.547Z,101498.13
2022-11-10T02:00:37.601Z,101504.25
2022-11-10T02:03:39.408Z,101501.63
2022-11-10T02:06:38.444Z,101494.63
2022-11-10T02:09:26.433Z,101500.78
2022-11-10T02:12:14.680Z,101499.88
2022-11-10T02:15:01.567Z,101501.63
2022-11-10T02:17:48.678Z,101500.72
2022-11-10T02:20:35.589Z,101511.22
2022-11-10T02:23:35.570Z,101517.38
2022-11-10T02:26:25.188Z,101522.63
2022-11-10T02:29:12.959Z,101534.91
2022-11-10T02:31:59.754Z,101532.31
2022-11-10T02:34:46.451Z,101537.53
2022-11-10T02:37:33.723Z,101537.56
2022-11-10T02:40:20.873Z,101533.16
2022-11-10T02:43:11.740Z,101531.41
2022-11-10T02:45:58.413Z,101545.41
2022-11-10T02:48:45.311Z,101548.03
2022-11-10T02:51:32.442Z,101541.91
2022-11-10T02:54:19.737Z,101554.16
2022-11-10T02:57:06.795Z,101558.50
2022-11-10T02:59:54.006Z,101560.25
2022-11-10T03:02:42.073Z,101575.19
2022-11-10T03:05:32.531Z,101576.88
2022-11-10T03:08:19.509Z,101572.50
2022-11-10T03:11:06.551Z,101571.63
2022-11-10T03:14:01.441Z,101569.88
2022-11-10T03:16:49.421Z,101582.13
2022-11-10T03:19:36.101Z,101582.13
2022-11-10T03:22:22.923Z,101594.31
2022-11-10T03:25:10.630Z,101590.81
2022-11-10T03:27:57.477Z,101597.00
2022-11-10T03:30:44.562Z,101597.84
2022-11-10T03:33:31.588Z,101594.31
2022-11-10T03:36:18.668Z,101600.44
2022-11-10T03:39:05.309Z,101603.91
2022-11-10T03:41:52.423Z,101606.53
2022-11-10T03:44:39.554Z,101603.03
2022-11-10T03:47:27.274Z,101609.16
2022-11-10T03:50:15.954Z,101616.16
2022-11-10T03:53:05.470Z,101624.03
2022-11-10T03:55:53.878Z,101628.38
2022-11-10T03:58:41.053Z,101626.63
2022-11-10T04:01:27.972Z,101632.78
2022-11-10T04:04:33.332Z,101627.50
2022-11-10T04:07:38.603Z,101636.22
2022-11-10T04:10:25.676Z,101640.63
2022-11-10T04:13:31.143Z,101640.63
2022-11-10T04:16:17.991Z,101658.16
2022-11-10T04:19:04.794Z,101662.56
2022-11-10T04:21:51.894Z,101673.94
2022-11-10T04:24:38.776Z,101676.63
2022-11-10T04:27:25.856Z,101675.81
2022-11-10T04:30:12.877Z,101689.81
2022-11-10T04:32:59.793Z,101690.78
2022-11-10T04:35:46.835Z,101691.56
2022-11-10T04:38:34.132Z,101690.69
2022-11-10T04:41:22.117Z,101685.38
2022-11-10T04:44:09.194Z,101692.34
2022-11-10T04:46:56.233Z,101680.09
2022-11-10T04:49:43.350Z,101679.16
2022-11-10T04:52:30.121Z,101684.47
2022-11-10T04:55:17.021Z,101679.25
2022-11-10T04:58:04.698Z,101687.22
2022-11-10T05:00:51.573Z,101680.25
2022-11-10T05:03:38.668Z,101672.47
2022-11-10T05:06:25.675Z,101668.16
2022-11-10T05:09:12.783Z,101669.94
2022-11-10T05:12:01.545Z,101678.78
2022-11-10T05:14:48.496Z,101677.03
2022-11-10T05:17:35.621Z,101675.34
2022-11-10T05:20:24.797Z,101680.63
2022-11-10T05:23:30.133Z,101692.06
2022-11-10T05:26:18.550Z,101689.44
2022-11-10T05:29:05.378Z,101693.81
2022-11-10T05:31:52.376Z,101700.00
2022-11-10T05:34:39.392Z,101700.00
2022-11-10T05:37:26.371Z,101703.53
2022-11-10T05:40:13.453Z,101703.53
2022-11-10T05:43:01.026Z,101707.94
2022-11-10T05:45:47.927Z,101709.72
2022-11-10T05:48:34.820Z,101716.72
2022-11-10T05:51:21.811Z,101729.03
2022-11-10T05:54:08.990Z,101717.66
2022-11-10T05:56:56.864Z,101726.41
2022-11-10T05:59:44.035Z,101721.19
2022-11-10T06:02:31.088Z,101726.47
2022-11-10T06:05:18.172Z,101724.72
2022-11-10T06:08:06.357Z,101728.22
2022-11-10T06:10:54.774Z,101735.25
2022-11-10T06:13:41.738Z,101746.66
2022-11-10T06:16:28.898Z,101751.91
2022-11-10T06:19:16.278Z,101750.16
2022-11-10T06:22:07.491Z,101758.88
2022-11-10T06:24:54.695Z,101761.47
2022-11-10T06:27:44.918Z,101761.47
2022-11-10T06:30:34.018Z,101768.47
2022-11-10T06:33:21.236Z,101765.84
2022-11-10T06:36:10.106Z,101785.97
2022-11-10T06:38:57.878Z,101786.88
2022-11-10T06:41:44.697Z,101789.50
2022-11-10T06:44:31.801Z,101795.59
2022-11-10T06:47:19.611Z,101799.13
2022-11-10T06:50:09.448Z,101808.78
2022-11-10T06:52:57.836Z,101808.78
2022-11-10T06:55:44.892Z,101815.88
2022-11-10T06:58:35.006Z,101826.41
2022-11-10T07:01:26.774Z,101837.84
2022-11-10T07:04:20.378Z,101851.06
2022-11-10T07:07:08.591Z,101857.28
2022-11-10T07:09:55.587Z,101871.41
2022-11-10T07:12:43.004Z,101869.75
2022-11-10T07:15:30.949Z,101868.97
2022-11-10T07:18:18.134Z,101870.84
2022-11-10T07:21:06.188Z,101857.78
2022-11-10T07:23:52.905Z,101849.97
2022-11-10T07:26:39.820Z,101857.09
2022-11-10T07:29:26.829Z,101851.88
2022-11-10T07:32:13.762Z,101852.84
2022-11-10T07:35:05.339Z,101859.91
2022-11-10T07:37:52.293Z,101852.06
2022-11-10T07:40:39.664Z,101856.53
2022-11-10T07:43:27.848Z,101866.28
2022-11-10T07:46:14.786Z,101868.97
2022-11-10T07:49:01.932Z,101863.75
2022-11-10T07:51:48.722Z,101863.88
2022-11-10T07:54:36.329Z,101873.53
2022-11-10T07:57:23.718Z,101870.97
2022-11-10T08:00:13.552Z,101886.81
2022-11-10T08:03:10.103Z,101890.41
2022-11-10T08:06:05.774Z,101902.69
2022-11-10T08:08:52.520Z,101891.31
2022-11-10T08:11:40.893Z,101893.09
2022-11-10T08:14:27.582Z,101891.34
2022-11-10T08:17:14.495Z,101894.00
2022-11-10T08:20:01.641Z,101895.84
2022-11-10T08:22:48.723Z,101908.97
2022-11-10T08:25:37.152Z,101909.81
2022-11-10T08:28:26.305Z,101913.31
2022-11-10T08:31:12.804Z,101915.88
2022-11-10T08:34:01.108Z,101910.63
2022-11-10T08:36:48.191Z,101908.91
2022-11-10T08:39:39.509Z,101928.34
2022-11-10T08:42:26.837Z,101924.97
2022-11-10T08:45:15.672Z,101931.25
2022-11-10T08:48:09.842Z,101928.84
2022-11-10T08:51:01.228Z,101936.88
2022-11-10T08:53:48.326Z,101931.69
2022-11-10T08:56:38.349Z,101951.06
2022-11-10T08:59:26.395Z,101950.25
2022-11-10T09:02:14.317Z,101960.00
2022-11-10T09:05:01.825Z,101967.03
2022-11-10T09:07:50.148Z,101961.91
2022-11-10T09:10:40.280Z,101972.56
2022-11-10T09:13:30.202Z,101968.34
2022-11-10T09:16:18.028Z,101965.91
2022-11-10T09:19:05.227Z,101967.00
2022-11-10T09:21:52.136Z,101965.44
2022-11-10T09:24:38.788Z,101976.94
2022-11-10T09:27:25.862Z,101971.81
2022-11-10T09:30:17.690Z,101969.38
2022-11-10T09:33:05.236Z,101976.63
2022-11-10T09:35:57.477Z,101972.41
2022-11-10T09:38:43.994Z,101977.88
2022-11-10T09:41:32.596Z,101986.81
2022-11-10T09:44:36.536Z,101985.06
2022-11-10T09:47:55.760Z,101984.19
2022-11-10T09:50:47.731Z,101988.63
2022-11-10T09:53:43.476Z,101992.09
2022-11-10T09:56:39.797Z,101989.59
2022-11-10T09:59:29.490Z,101994.13
2022-11-10T10:02:25.593Z,101982.84
2022-11-10T10:05:51.669Z,101997.03
2022-11-10T10:08:57.992Z,102004.13
2022-11-10T10:12:23.322Z,102002.53
2022-11-10T10:15:25.349Z,102020.31
2022-11-10T10:18:37.270Z,102026.50
2022-11-10T10:21:40.408Z,102044.94
2022-11-10T10:24:30.197Z,102043.22
2022-11-10T10:27:23.010Z,102051.13
2022-11-10T10:30:19.296Z,102052.13
2022-11-10T10:33:21.068Z,102061.00
2022-11-10T10:36:20.125Z,102056.72
2022-11-10T10:39:14.758Z,102053.28
2022-11-10T10:42:01.920Z,102058.69
2022-11-10T10:45:27.421Z,102051.66
2022-11-10T10:48:28.939Z,102056.97
2022-11-10T10:51:30.272Z,102057.97
2022-11-10T10:54:29.393Z,102063.44
2022-11-10T10:57:19.441Z,102044.09
2022-11-10T11:00:42.203Z,102037.13
2022-11-10T11:03:34.905Z,102046.78
2022-11-10T11:06:28.160Z,102051.19
2022-11-10T11:09:27.164Z,102068.91
2022-11-10T11:12:26.297Z,102055.75
2022-11-10T11:15:21.030Z,102056.72
2022-11-10T11:18:20.724Z,102069.94
2022-11-10T11:21:29.927Z,102071.75
2022-11-10T11:24:28.544Z,102084.13
2022-11-10T11:27:43.321Z,102086.88
2022-11-10T11:30:39.040Z,102085.16
2022-11-10T11:33:36.073Z,102089.72
2022-11-10T11:37:27.302Z,102097.75
2022-11-10T11:40:32.955Z,102095.09
2022-11-10T11:43:44.908Z,102103.00
2022-11-10T11:46:31.659Z,102104.72
2022-11-10T11:49:40.507Z,102110.88
2022-11-10T11:52:42.401Z,102122.34
2022-11-10T11:55:47.421Z,102116.19
2022-11-10T11:59:12.719Z,102113.56
2022-11-10T12:02:30.476Z,102110.06
2022-11-10T12:05:59.559Z,102110.97
2022-11-10T12:09:19.234Z,102116.28
2022-11-10T12:12:27.956Z,102111.84
2022-11-10T12:15:36.728Z,102122.38
2022-11-10T12:18:43.559Z,102136.50
2022-11-10T12:22:14.106Z,102121.53
2022-11-10T12:25:01.317Z,102126.88
2022-11-10T12:28:06.194Z,102149.81
2022-11-10T12:31:01.751Z,102144.56
2022-11-10T12:33:56.002Z,102151.63
2022-11-10T12:36:44.406Z,102155.16
2022-11-10T12:39:43.232Z,102157.00
2022-11-10T12:42:31.285Z,102147.22
2022-11-10T12:45:23.709Z,102144.56
2022-11-10T12:48:16.241Z,102144.44
2022-11-10T12:51:21.728Z,102150.53
2022-11-10T12:54:16.618Z,102150.47
2022-11-10T12:57:27.997Z,102142.47
2022-11-10T13:00:26.833Z,102147.75
2022-11-10T13:03:27.488Z,102153.91
2022-11-10T13:06:24.653Z,102141.53
2022-11-10T13:09:32.392Z,102137.06
2022-11-10T13:12:21.973Z,102154.63
2022-11-10T13:15:40.002Z,102144.97
2022-11-10T13:18:30.331Z,102143.22
2022-11-10T13:21:16.971Z,102129.13
2022-11-10T13:24:05.476Z,102124.81
2022-11-10T13:27:12.623Z,102140.78
2022-11-10T13:30:01.228Z,102131.09
2022-11-10T13:32:48.364Z,102134.66
2022-11-10T13:35:38.778Z,102132.88
2022-11-10T13:38:32.362Z,102132.00
2022-11-10T13:41:25.822Z,102139.91
2022-11-10T13:44:28.164Z,102142.53
2022-11-10T13:47:34.953Z,102146.03
2022-11-10T13:50:43.634Z,102162.75
2022-11-10T13:53:36.574Z,102168.03
2022-11-10T13:56:51.225Z,102175.06
2022-11-10T14:00:00.733Z,102175.94
2022-11-10T14:03:53.347Z,102170.66
2022-11-10T14:06:44.015Z,102171.56
2022-11-10T14:09:40.280Z,102165.38
2022-11-10T14:12:59.068Z,102155.69
2022-11-10T14:15:48.644Z,102171.56
2022-11-10T14:18:46.814Z,102175.13
2022-11-10T14:22:00.954Z,102183.97
2022-11-10T14:25:04.635Z,102177.78
2022-11-10T14:27:57.706Z,102184.88
2022-11-10T14:30:55.033Z,102191.06
2022-11-10T14:33:42.052Z,102208.72
2022-11-10T14:36:29.477Z,102207.88
2022-11-10T14:39:17.043Z,102206.13
2022-11-10T14:42:05.831Z,102212.31
2022-11-10T14:45:26.391Z,102200.91
2022-11-10T14:48:19.899Z,102204.38
2022-11-10T14:51:15.648Z,102207.03
2022-11-10T14:54:03.002Z,102223.78
2022-11-10T14:56:50.562Z,102229.94
2022-11-10T14:59:37.821Z,102232.53
2022-11-10T15:02:26.494Z,102240.44
2022-11-10T15:05:15.788Z,102248.38
2022-11-10T15:08:04.704Z,102234.22
2022-11-10T15:10:59.413Z,102252.75
2022-11-10T15:13:46.470Z,102246.56
2022-11-10T15:16:36.612Z,102238.63
2022-11-10T15:19:37.089Z,102233.31
2022-11-10T15:22:29.646Z,102249.19
2022-11-10T15:25:19.010Z,102248.28
2022-11-10T15:28:21.792Z,102257.97
2022-11-10T15:31:21.352Z,102257.03
2022-11-10T15:34:41.737Z,102263.16
2022-11-10T15:37:31.457Z,102264.00
2022-11-10T15:40:34.145Z,102254.28
2022-11-10T15:43:24.464Z,102263.06
2022-11-10T15:46:22.135Z,102263.94
2022-11-10T15:49:23.361Z,102263.91
2022-11-10T15:52:13.779Z,102264.75
2022-11-10T15:55:01.336Z,102263.81
2022-11-10T15:57:48.538Z,102261.16
2022-11-10T16:00:36.077Z,102262.03
2022-11-10T16:03:23.562Z,102268.16
2022-11-10T16:06:14.953Z,102271.69
2022-11-10T16:09:01.756Z,102281.38
2022-11-10T16:11:48.513Z,102281.38
2022-11-10T16:14:36.265Z,102270.81
2022-11-10T16:17:24.068Z,102291.91
2022-11-10T16:20:17.324Z,102294.53
2022-11-10T16:23:05.250Z,102289.16
2022-11-10T16:25:54.847Z,102290.91
2022-11-10T16:28:44.261Z,102294.34
2022-11-10T16:31:32.890Z,102303.13
2022-11-10T16:34:20.151Z,102298.63
2022-11-10T16:37:10.196Z,102302.97
2022-11-10T16:39:57.179Z,102302.91
2022-11-10T16:42:44.589Z,102298.53
2022-11-10T16:45:32.323Z,102303.81
2022-11-10T16:48:26.744Z,102299.41
2022-11-10T16:51:15.119Z,102303.81
2022-11-10T16:54:02.356Z,102298.56
2022-11-10T16:56:49.784Z,102302.13
2022-11-10T16:59:36.749Z,102311.81
2022-11-10T17:02:34.724Z,102319.75
2022-11-10T17:05:21.875Z,102328.63
2022-11-10T17:08:19.438Z,102323.34
2022-11-10T17:11:07.832Z,102333.06
2022-11-10T17:13:54.629Z,102331.34
2022-11-10T17:16:45.330Z,102341.06
2022-11-10T17:19:32.424Z,102330.47
2022-11-10T17:22:24.604Z,102326.03
2022-11-10T17:25:23.662Z,102322.53
2022-11-10T17:28:15.452Z,102331.31
2022-11-10T17:31:05.814Z,102337.47
2022-11-10T17:33:53.305Z,102343.66
2022-11-10T17:36:40.629Z,102344.50
2022-11-10T17:39:27.634Z,102339.22
2022-11-10T17:42:14.666Z,102347.16
2022-11-10T17:45:01.660Z,102337.47
2022-11-10T17:47:49.760Z,102338.34
2022-11-10T17:50:38.785Z,102333.09
2022-11-10T17:53:28.335Z,102348.03
2022-11-10T17:56:15.339Z,102354.25
2022-11-10T17:59:02.045Z,102350.72
2022-11-10T18:01:48.931Z,102356.00
2022-11-10T18:04:36.640Z,102356.88
2022-11-10T18:07:23.596Z,102355.09
2022-11-10T18:10:27.048Z,102349.81
2022-11-10T18:13:41.708Z,102347.16
2022-11-10T18:16:38.563Z,102342.75
2022-11-10T18:19:29.278Z,102331.31
2022-11-10T18:22:19.411Z,102330.41
2022-11-10T18:25:15.642Z,102332.19
2022-11-10T18:28:02.454Z,102336.59
2022-11-10T18:30:49.432Z,102344.50
2022-11-10T18:33:36.890Z,102348.03
2022-11-10T18:36:23.789Z,102349.81
2022-11-10T18:39:10.834Z,102346.28
2022-11-10T18:41:57.536Z,102347.19
2022-11-10T18:44:44.703Z,102350.72
2022-11-10T18:47:31.820Z,102350.72
2022-11-10T18:50:19.317Z,102341.94
2022-11-10T18:53:06.331Z,102342.78
2022-11-10T18:55:54.993Z,102354.28
2022-11-10T18:58:42.217Z,102362.22
2022-11-10T19:01:29.353Z,102362.22
2022-11-10T19:04:16.275Z,102364.84
2022-11-10T19:07:03.637Z,102377.22
2022-11-10T19:09:51.212Z,102355.19
2022-11-10T19:12:38.371Z,102359.56
2022-11-10T19:15:25.818Z,102369.25
2022-11-10T19:18:13.002Z,102382.47
2022-11-10T19:21:07.771Z,102375.44
2022-11-10T19:23:56.928Z,102378.06
2022-11-10T19:26:46.018Z,102387.78
2022-11-10T19:29:33.283Z,102378.94
2022-11-10T19:32:24.665Z,102386.00
2022-11-10T19:35:14.419Z,102382.44
2022-11-10T19:38:01.337Z,102377.16
2022-11-10T19:40:53.165Z,102378.00
2022-11-10T19:43:47.276Z,102380.63
2022-11-10T19:46:36.977Z,102393.84
2022-11-10T19:49:25.715Z,102380.56
2022-11-10T19:52:18.402Z,102384.06
2022-11-10T19:55:05.925Z,102384.03
2022-11-10T19:57:55.236Z,102377.88
2022-11-10T20:00:47.626Z,102399.84
2022-11-10T20:03:35.864Z,102404.22
2022-11-10T20:06:23.453Z,102408.56
2022-11-10T20:09:17.146Z,102406.81
2022-11-10T20:12:08.272Z,102412.97
2022-11-10T20:14:55.617Z,102419.06
2022-11-10T20:17:42.473Z,102415.56
2022-11-10T20:20:33.987Z,102410.22
2022-11-10T20:23:21.532Z,102411.13
2022-11-10T20:26:11.005Z,102411.97
2022-11-10T20:28:57.936Z,102415.47
2022-11-10T20:31:45.816Z,102418.97
2022-11-10T20:34:32.952Z,102423.38
2022-11-10T20:37:20.494Z,102428.63
2022-11-10T20:40:37.621Z,102427.75
2022-11-10T20:43:14.987Z,102436.53
2022-11-10T20:46:02.382Z,102430.34
2022-11-10T20:48:52.164Z,102439.97
2022-11-10T20:51:40.419Z,102443.47
2022-11-10T20:54:27.737Z,102441.69
2022-11-10T20:57:14.977Z,102455.72
2022-11-10T21:00:02.097Z,102445.13
2022-11-10T21:02:49.358Z,102452.09
2022-11-10T21:05:36.167Z,102445.94
2022-11-10T21:08:25.845Z,102443.22
2022-11-10T21:11:32.886Z,102447.59
2022-11-10T21:14:25.095Z,102452.88
2022-11-10T21:17:12.001Z,102450.19
2022-11-10T21:19:59.289Z,102440.47
2022-11-10T21:22:46.366Z,102455.41
2022-11-10T21:25:33.288Z,102465.91
2022-11-10T21:28:21.555Z,102470.31
2022-11-10T21:31:09.473Z,102467.63
2022-11-10T21:33:57.864Z,102464.91
2022-11-10T21:36:44.772Z,102467.53
2022-11-10T21:39:32.251Z,102457.84
2022-11-10T21:42:21.773Z,102463.09
2022-11-10T21:45:11.309Z,102466.53
2022-11-10T21:48:05.125Z,102469.16
2022-11-10T21:50:51.925Z,102462.13
2022-11-10T21:53:47.689Z,102464.72
2022-11-10T21:56:34.711Z,102462.94
2022-11-10T21:59:23.595Z,102462.03
2022-11-10T22:02:10.751Z,102450.53
2022-11-10T22:05:00.291Z,102449.63
2022-11-10T22:07:47.507Z,102453.13
2022-11-10T22:10:53.653Z,102455.69
2022-11-10T22:13:59.572Z,102455.63
2022-11-10T22:17:07.724Z,102454.78
2022-11-10T22:19:57.089Z,102445.94
2022-11-10T22:22:44.351Z,102444.19
2022-11-10T22:25:38.630Z,102436.22
2022-11-10T22:28:26.098Z,102447.66
2022-11-10T22:31:14.165Z,102452.91
2022-11-10T22:34:01.301Z,102454.69
2022-11-10T22:36:52.487Z,102442.34
2022-11-10T22:39:57.634Z,102456.47
2022-11-10T22:43:05.616Z,102445.81
2022-11-10T22:45:52.656Z,102458.97
2022-11-10T22:48:39.464Z,102457.19
2022-11-10T22:51:28.325Z,102458.06
2022-11-10T22:54:18.082Z,102475.63
2022-11-10T22:57:05.377Z,102476.50
2022-11-10T22:59:51.962Z,102480.91
2022-11-10T23:02:38.990Z,102499.38
2022-11-10T23:05:27.754Z,102488.88
2022-11-10T23:08:14.465Z,102486.19
2022-11-10T23:11:06.633Z,102503.78
2022-11-10T23:13:53.717Z,102496.75
2022-11-10T23:16:47.362Z,102486.19
2022-11-10T23:19:34.336Z,102495.03
2022-11-10T23:22:20.946Z,102498.56
2022-11-10T23:25:07.996Z,102494.19
2022-11-10T23:27:56.405Z,102495.97
2022-11-10T23:30:43.333Z,102496.84
2022-11-10T23:33:32.759Z,102492.44
2022-11-10T23:36:22.595Z,102510.03
2022-11-10T23:39:09.386Z,102499.44
2022-11-10T23:41:56.153Z,102499.38
2022-11-10T23:44:42.764Z,102503.78
2022-11-10T23:47:30.075Z,102501.13
2022-11-10T23:50:17.070Z,102496.59
2022-11-10T23:53:03.742Z,102502.75
2022-11-10T23:56:05.680Z,102507.16
2022-11-10T23:58:52.229Z,102510.56
